Mortlach, Canada
Current Conditions -  °F | °C
As of 8:40 AM on Friday 28 Nov 2014 (Local Time) from CYQR Reporting Station
Light Snow Light Snow  
Wind Chill: -5°   Ceiling: 1500
Heat Index: 10°   Visibility: 1.5mi
Dew Point:   Wind: 13mph
Humidity: 92%   Direction: 120°ESE
Pressure: 29.7"   Gusts: 20mph
Location:  50.45°N, 106.07°W
Report Text: CYQR 281440Z 12011G17KT 1 1/2SM -SN DRSN OVC015 M12/M13 A2970 RMK SC8 PRESFR SLP097
Loading
Personal Weather Stations






























Interactive Weather Map New forecast layout! Learn more

10-Day Weather Forecast

Advertisements
Track Severe Weather on mobile